Impacts METAR Board
IDs:

KCLT - Charlotte/Douglas In, NC, US

Updated at: 0500 UTC 21 Apr 2018
Potential Impact None Slight Moderate High
Time 20/17Z 20/18Z 20/19Z 20/20Z 20/21Z 20/22Z 20/23Z 21/00Z 21/01Z 21/02Z 21/03Z 21/04Z 21/05Z
Temp60 61 62 66 66 67 66 62 63 55 47 43 48
Dewpt28 30 27 30 25 27 26 27 24 31 37 35 35
Altim30.37 30.34 30.33 30.31 30.29 30.28 30.28 30.28 30.30 30.32 30.33 30.33 30.35
VIS10 10 10 10 10 10 10 10 10 10 10 10 10
CIG-- -- -- -- -- -- -- -- -- -- -- -- --
CoverCLRCLRCLRCLRCLRCLRCLRCLRCLRCLRCLRCLRCLR
FltCatVFRVFRVFRVFRVFRVFRVFRVFRVFRVFRVFRVFRVFR
WX--------------------------
WDir00020020408000000
WSpd3 3 3 8 4 9 6 4 3 0 0 0 0
WGst-- -- -- -- -- -- -- -- -- -- -- -- --
Raw hourly METARs
KCLT 201652Z VRB03KT 10SM CLR 16/M02 A3037 RMK AO2 SLP282 T01561022
KCLT 201752Z VRB03KT 10SM CLR 16/M01 A3034 RMK AO2 SLP274 T01611011 10167 20072 58013
KCLT 201852Z VRB03KT 10SM CLR 17/M03 A3033 RMK AO2 SLP269 T01671028
KCLT 201952Z 02008KT 10SM CLR 19/M01 A3031 RMK AO2 SLP262 T01891011
KCLT 202052Z VRB04KT 10SM CLR 19/M04 A3029 RMK AO2 SLP257 T01891039 56016
KCLT 202152Z 02009KT 10SM CLR 19/M03 A3028 RMK AO2 SLP253 T01941028
KCLT 202252Z 04006KT 10SM CLR 19/M03 A3028 RMK AO2 SLP252 T01891033
KCLT 202352Z 08004KT 10SM CLR 17/M03 A3028 RMK AO2 SLP253 T01671028 10194 20156 55004
KCLT 210052Z VRB03KT 10SM CLR 17/M04 A3030 RMK AO2 SLP257 T01721044
KCLT 210152Z 00000KT 10SM CLR 13/M01 A3032 RMK AO2 SLP264 T01281006
KCLT 210252Z 00000KT 10SM CLR 08/03 A3033 RMK AO2 SLP269 T00830028 51015
KCLT 210352Z 00000KT 10SM CLR 06/02 A3033 RMK AO2 SLP271 T00610017
KCLT 210452Z 00000KT 10SM CLR 09/02 A3035 RMK AO2 SLP276 T00890017 401940033



Page loaded:  05:55 UTC  |   10:55 PM Pacific  |   11:55 PM Mountain  |   12:55 AM Central  |   01:55 AM Eastern

 

ADVISORIES

FORECASTS

FORECASTS

OBSERVATIONS

USER TOOLS

ABOUT US